sensor_id;sensor_type;location;lat;lon;timestamp;temperature;humidity
47961;DHT22;33721;48.852;9.936;2023-07-28T00:01:19;17.00;99.90
47961;DHT22;33721;48.852;9.936;2023-07-28T00:03:45;17.10;99.90
47961;DHT22;33721;48.852;9.936;2023-07-28T00:06:11;17.10;99.90
47961;DHT22;33721;48.852;9.936;2023-07-28T00:08:37;17.20;99.90
47961;DHT22;33721;48.852;9.936;2023-07-28T00:11:13;17.20;99.90
47961;DHT22;33721;48.852;9.936;2023-07-28T00:13:39;17.30;99.90
47961;DHT22;33721;48.852;9.936;2023-07-28T00:16:05;17.30;99.90
47961;DHT22;33721;48.852;9.936;2023-07-28T00:18:31;17.30;99.90
47961;DHT22;33721;48.852;9.936;2023-07-28T00:20:57;17.30;99.90
47961;DHT22;33721;48.852;9.936;2023-07-28T00:23:23;17.30;99.90
47961;DHT22;33721;48.852;9.936;2023-07-28T00:25:48;17.30;99.90
47961;DHT22;33721;48.852;9.936;2023-07-28T00:28:14;17.30;99.90
47961;DHT22;33721;48.852;9.936;2023-07-28T00:30:40;17.20;99.90
47961;DHT22;33721;48.852;9.936;2023-07-28T00:33:05;17.20;99.90
47961;DHT22;33721;48.852;9.936;2023-07-28T00:35:31;17.10;99.90
47961;DHT22;33721;48.852;9.936;2023-07-28T00:37:57;17.00;99.90
47961;DHT22;33721;48.852;9.936;2023-07-28T00:40:23;16.90;99.90
47961;DHT22;33721;48.852;9.936;2023-07-28T00:42:49;16.80;99.90
47961;DHT22;33721;48.852;9.936;2023-07-28T00:45:14;16.80;99.90
47961;DHT22;33721;48.852;9.936;2023-07-28T00:47:40;16.70;99.90
47961;DHT22;33721;48.852;9.936;2023-07-28T00:50:08;16.70;99.90
47961;DHT22;33721;48.852;9.936;2023-07-28T00:52:35;16.70;99.90
47961;DHT22;33721;48.852;9.936;2023-07-28T00:55:01;16.70;99.90
47961;DHT22;33721;48.852;9.936;2023-07-28T00:57:27;16.60;99.90
47961;DHT22;33721;48.852;9.936;2023-07-28T00:59:53;16.60;99.90
47961;DHT22;33721;48.852;9.936;2023-07-28T01:02:19;16.50;99.90
47961;DHT22;33721;48.852;9.936;2023-07-28T01:04:45;16.50;99.90
47961;DHT22;33721;48.852;9.936;2023-07-28T01:07:17;16.40;99.90
47961;DHT22;33721;48.852;9.936;2023-07-28T01:10:00;16.50;99.90
47961;DHT22;33721;48.852;9.936;2023-07-28T01:12:26;16.40;99.90
47961;DHT22;33721;48.852;9.936;2023-07-28T01:14:52;16.40;99.90
47961;DHT22;33721;48.852;9.936;2023-07-28T01:17:17;16.50;99.90
47961;DHT22;33721;48.852;9.936;2023-07-28T01:19:44;16.50;99.90
47961;DHT22;33721;48.852;9.936;2023-07-28T01:24:49;16.60;99.90
47961;DHT22;33721;48.852;9.936;2023-07-28T01:27:16;16.60;99.90
47961;DHT22;33721;48.852;9.936;2023-07-28T01:29:42;16.60;99.90
47961;DHT22;33721;48.852;9.936;2023-07-28T01:32:11;16.60;99.90
47961;DHT22;33721;48.852;9.936;2023-07-28T01:34:36;16.60;99.90
47961;DHT22;33721;48.852;9.936;2023-07-28T01:37:02;16.60;99.90
47961;DHT22;33721;48.852;9.936;2023-07-28T01:39:28;16.70;99.90
47961;DHT22;33721;48.852;9.936;2023-07-28T01:41:54;16.70;99.90
47961;DHT22;33721;48.852;9.936;2023-07-28T01:44:19;16.70;99.90
47961;DHT22;33721;48.852;9.936;2023-07-28T01:46:45;16.80;99.90
47961;DHT22;33721;48.852;9.936;2023-07-28T01:49:10;16.70;99.90
47961;DHT22;33721;48.852;9.936;2023-07-28T01:51:36;16.70;99.90
47961;DHT22;33721;48.852;9.936;2023-07-28T01:54:01;16.60;99.90
47961;DHT22;33721;48.852;9.936;2023-07-28T01:56:27;16.60;99.90
47961;DHT22;33721;48.852;9.936;2023-07-28T01:58:53;16.50;99.90
47961;DHT22;33721;48.852;9.936;2023-07-28T02:01:18;16.60;99.90
47961;DHT22;33721;48.852;9.936;2023-07-28T02:03:44;16.60;99.90
47961;DHT22;33721;48.852;9.936;2023-07-28T02:06:09;16.60;99.90
47961;DHT22;33721;48.852;9.936;2023-07-28T02:08:35;16.60;99.90
47961;DHT22;33721;48.852;9.936;2023-07-28T02:11:01;16.50;99.90
47961;DHT22;33721;48.852;9.936;2023-07-28T02:13:26;16.50;99.90
47961;DHT22;33721;48.852;9.936;2023-07-28T02:15:52;16.60;99.90
47961;DHT22;33721;48.852;9.936;2023-07-28T02:18:17;16.60;99.90
47961;DHT22;33721;48.852;9.936;2023-07-28T02:20:43;16.70;99.90
47961;DHT22;33721;48.852;9.936;2023-07-28T02:23:09;16.60;99.90
47961;DHT22;33721;48.852;9.936;2023-07-28T02:25:34;16.70;99.90
47961;DHT22;33721;48.852;9.936;2023-07-28T02:28:00;16.70;99.90
47961;DHT22;33721;48.852;9.936;2023-07-28T02:30:25;16.70;99.90
47961;DHT22;33721;48.852;9.936;2023-07-28T02:32:51;16.80;99.90
47961;DHT22;33721;48.852;9.936;2023-07-28T02:35:16;16.70;99.90
47961;DHT22;33721;48.852;9.936;2023-07-28T02:37:42;16.80;99.90
47961;DHT22;33721;48.852;9.936;2023-07-28T02:40:08;16.80;99.90
47961;DHT22;33721;48.852;9.936;2023-07-28T02:42:34;16.70;99.90
47961;DHT22;33721;48.852;9.936;2023-07-28T02:45:01;16.80;99.90
47961;DHT22;33721;48.852;9.936;2023-07-28T02:47:27;16.70;99.90
47961;DHT22;33721;48.852;9.936;2023-07-28T02:49:52;16.80;99.90
47961;DHT22;33721;48.852;9.936;2023-07-28T02:52:18;16.80;99.90
47961;DHT22;33721;48.852;9.936;2023-07-28T02:54:44;16.70;99.90
47961;DHT22;33721;48.852;9.936;2023-07-28T02:57:09;16.70;99.90
47961;DHT22;33721;48.852;9.936;2023-07-28T02:59:35;16.60;99.90
47961;DHT22;33721;48.852;9.936;2023-07-28T03:02:00;16.50;99.90
47961;DHT22;33721;48.852;9.936;2023-07-28T03:04:26;16.40;99.90
47961;DHT22;33721;48.852;9.936;2023-07-28T03:06:52;16.20;99.90
47961;DHT22;33721;48.852;9.936;2023-07-28T03:09:17;16.10;99.90
47961;DHT22;33721;48.852;9.936;2023-07-28T03:11:43;16.10;99.90
47961;DHT22;33721;48.852;9.936;2023-07-28T03:14:09;16.00;99.90
47961;DHT22;33721;48.852;9.936;2023-07-28T03:16:35;15.90;99.90
47961;DHT22;33721;48.852;9.936;2023-07-28T03:19:00;15.90;99.90
47961;DHT22;33721;48.852;9.936;2023-07-28T03:21:28;15.70;99.90
47961;DHT22;33721;48.852;9.936;2023-07-28T03:23:54;15.80;99.90
47961;DHT22;33721;48.852;9.936;2023-07-28T03:26:20;15.90;99.90
47961;DHT22;33721;48.852;9.936;2023-07-28T03:28:45;15.90;99.90
47961;DHT22;33721;48.852;9.936;2023-07-28T03:31:11;15.90;99.90
47961;DHT22;33721;48.852;9.936;2023-07-28T03:33:37;15.80;99.90
47961;DHT22;33721;48.852;9.936;2023-07-28T03:36:02;15.70;99.90
47961;DHT22;33721;48.852;9.936;2023-07-28T03:38:28;15.70;99.90
47961;DHT22;33721;48.852;9.936;2023-07-28T03:40:54;15.80;99.90
47961;DHT22;33721;48.852;9.936;2023-07-28T03:43:20;15.90;99.90
47961;DHT22;33721;48.852;9.936;2023-07-28T03:45:46;16.00;99.90
47961;DHT22;33721;48.852;9.936;2023-07-28T03:48:12;16.10;99.90
47961;DHT22;33721;48.852;9.936;2023-07-28T03:50:37;16.10;99.90
47961;DHT22;33721;48.852;9.936;2023-07-28T03:53:03;16.10;99.90
47961;DHT22;33721;48.852;9.936;2023-07-28T03:55:28;16.10;99.90
47961;DHT22;33721;48.852;9.936;2023-07-28T03:57:54;16.10;99.90
47961;DHT22;33721;48.852;9.936;2023-07-28T04:00:20;16.10;99.90
47961;DHT22;33721;48.852;9.936;2023-07-28T04:02:45;16.10;99.90
47961;DHT22;33721;48.852;9.936;2023-07-28T04:05:11;16.00;99.90
47961;DHT22;33721;48.852;9.936;2023-07-28T04:07:37;16.10;99.90
47961;DHT22;33721;48.852;9.936;2023-07-28T04:10:04;16.10;99.90
47961;DHT22;33721;48.852;9.936;2023-07-28T04:12:29;16.20;99.90
47961;DHT22;33721;48.852;9.936;2023-07-28T04:14:55;16.30;99.90
47961;DHT22;33721;48.852;9.936;2023-07-28T04:17:21;16.30;99.90
47961;DHT22;33721;48.852;9.936;2023-07-28T04:19:46;16.50;99.90
47961;DHT22;33721;48.852;9.936;2023-07-28T04:22:12;16.50;99.90
47961;DHT22;33721;48.852;9.936;2023-07-28T04:24:38;16.60;99.90
47961;DHT22;33721;48.852;9.936;2023-07-28T04:27:04;16.70;99.90
47961;DHT22;33721;48.852;9.936;2023-07-28T04:29:30;16.70;99.90
47961;DHT22;33721;48.852;9.936;2023-07-28T04:31:55;16.70;99.90
47961;DHT22;33721;48.852;9.936;2023-07-28T04:34:21;16.60;99.90
47961;DHT22;33721;48.852;9.936;2023-07-28T04:36:47;16.60;99.90
47961;DHT22;33721;48.852;9.936;2023-07-28T04:39:12;16.50;99.90
47961;DHT22;33721;48.852;9.936;2023-07-28T04:41:38;16.50;99.90
47961;DHT22;33721;48.852;9.936;2023-07-28T04:44:04;16.50;99.90
47961;DHT22;33721;48.852;9.936;2023-07-28T04:46:30;16.50;99.90
47961;DHT22;33721;48.852;9.936;2023-07-28T04:48:56;16.60;99.90
47961;DHT22;33721;48.852;9.936;2023-07-28T04:51:22;16.60;99.90
47961;DHT22;33721;48.852;9.936;2023-07-28T04:53:47;16.60;99.90
47961;DHT22;33721;48.852;9.936;2023-07-28T04:56:13;16.70;99.90
47961;DHT22;33721;48.852;9.936;2023-07-28T04:58:38;16.50;99.90
47961;DHT22;33721;48.852;9.936;2023-07-28T05:01:04;16.40;99.90
47961;DHT22;33721;48.852;9.936;2023-07-28T05:03:30;16.40;99.90
47961;DHT22;33721;48.852;9.936;2023-07-28T05:05:57;16.30;99.90
47961;DHT22;33721;48.852;9.936;2023-07-28T05:08:22;16.30;99.90
47961;DHT22;33721;48.852;9.936;2023-07-28T05:10:48;16.30;99.90
47961;DHT22;33721;48.852;9.936;2023-07-28T05:13:13;16.30;99.90
47961;DHT22;33721;48.852;9.936;2023-07-28T05:15:39;16.40;99.90
47961;DHT22;33721;48.852;9.936;2023-07-28T05:18:05;16.40;99.90
47961;DHT22;33721;48.852;9.936;2023-07-28T05:20:30;16.40;99.90
47961;DHT22;33721;48.852;9.936;2023-07-28T05:22:56;16.40;99.90
47961;DHT22;33721;48.852;9.936;2023-07-28T05:25:22;16.50;99.90
47961;DHT22;33721;48.852;9.936;2023-07-28T05:27:48;16.50;99.90
47961;DHT22;33721;48.852;9.936;2023-07-28T05:30:13;16.60;99.90
47961;DHT22;33721;48.852;9.936;2023-07-28T05:32:39;16.60;99.90
47961;DHT22;33721;48.852;9.936;2023-07-28T05:35:05;16.60;99.90
47961;DHT22;33721;48.852;9.936;2023-07-28T05:37:30;16.60;99.90
47961;DHT22;33721;48.852;9.936;2023-07-28T05:39:56;16.60;99.90
47961;DHT22;33721;48.852;9.936;2023-07-28T05:42:22;16.70;99.90
47961;DHT22;33721;48.852;9.936;2023-07-28T05:44:49;16.70;99.90
47961;DHT22;33721;48.852;9.936;2023-07-28T05:47:17;16.60;99.90
47961;DHT22;33721;48.852;9.936;2023-07-28T05:49:43;16.60;99.90
47961;DHT22;33721;48.852;9.936;2023-07-28T05:52:08;16.70;99.90
47961;DHT22;33721;48.852;9.936;2023-07-28T05:54:34;16.80;99.90
47961;DHT22;33721;48.852;9.936;2023-07-28T05:56:59;16.80;99.90
47961;DHT22;33721;48.852;9.936;2023-07-28T05:59:25;16.80;99.90
47961;DHT22;33721;48.852;9.936;2023-07-28T06:01:51;16.80;99.90
47961;DHT22;33721;48.852;9.936;2023-07-28T06:04:16;16.80;99.90
47961;DHT22;33721;48.852;9.936;2023-07-28T06:06:42;16.70;99.90
47961;DHT22;33721;48.852;9.936;2023-07-28T06:09:08;16.70;99.90
47961;DHT22;33721;48.852;9.936;2023-07-28T06:11:33;16.70;99.90
47961;DHT22;33721;48.852;9.936;2023-07-28T06:13:59;16.70;99.90
47961;DHT22;33721;48.852;9.936;2023-07-28T06:16:24;16.70;99.90
47961;DHT22;33721;48.852;9.936;2023-07-28T06:18:50;16.70;99.90
47961;DHT22;33721;48.852;9.936;2023-07-28T06:21:16;16.70;99.90
47961;DHT22;33721;48.852;9.936;2023-07-28T06:23:41;16.70;99.90
47961;DHT22;33721;48.852;9.936;2023-07-28T06:26:07;16.70;99.90
47961;DHT22;33721;48.852;9.936;2023-07-28T06:28:33;16.70;99.90
47961;DHT22;33721;48.852;9.936;2023-07-28T06:30:58;16.70;99.90
47961;DHT22;33721;48.852;9.936;2023-07-28T06:33:25;16.70;99.90
47961;DHT22;33721;48.852;9.936;2023-07-28T06:35:51;16.70;99.90
47961;DHT22;33721;48.852;9.936;2023-07-28T06:38:17;16.70;99.90
47961;DHT22;33721;48.852;9.936;2023-07-28T06:40:43;16.80;99.90
47961;DHT22;33721;48.852;9.936;2023-07-28T06:43:08;16.80;99.90
47961;DHT22;33721;48.852;9.936;2023-07-28T06:45:34;16.80;99.90
47961;DHT22;33721;48.852;9.936;2023-07-28T06:48:00;16.70;99.90
47961;DHT22;33721;48.852;9.936;2023-07-28T06:50:25;16.80;99.90
47961;DHT22;33721;48.852;9.936;2023-07-28T06:52:51;16.90;99.90
47961;DHT22;33721;48.852;9.936;2023-07-28T06:55:17;16.90;99.90
47961;DHT22;33721;48.852;9.936;2023-07-28T06:57:43;16.90;99.90
47961;DHT22;33721;48.852;9.936;2023-07-28T07:00:09;16.90;99.90
47961;DHT22;33721;48.852;9.936;2023-07-28T07:02:36;16.90;99.90
47961;DHT22;33721;48.852;9.936;2023-07-28T07:05:02;17.00;99.90
47961;DHT22;33721;48.852;9.936;2023-07-28T07:07:28;17.00;99.90
47961;DHT22;33721;48.852;9.936;2023-07-28T07:09:53;17.00;99.90
47961;DHT22;33721;48.852;9.936;2023-07-28T07:12:19;16.90;99.90
47961;DHT22;33721;48.852;9.936;2023-07-28T07:14:46;17.00;99.90
47961;DHT22;33721;48.852;9.936;2023-07-28T07:17:12;17.00;99.90
47961;DHT22;33721;48.852;9.936;2023-07-28T07:19:38;17.00;99.90
47961;DHT22;33721;48.852;9.936;2023-07-28T07:22:04;17.00;99.90
47961;DHT22;33721;48.852;9.936;2023-07-28T07:24:31;17.00;99.90
47961;DHT22;33721;48.852;9.936;2023-07-28T07:26:56;17.00;99.90
47961;DHT22;33721;48.852;9.936;2023-07-28T07:29:22;17.00;99.90
47961;DHT22;33721;48.852;9.936;2023-07-28T07:31:48;17.10;99.90
47961;DHT22;33721;48.852;9.936;2023-07-28T07:34:14;17.20;99.90
47961;DHT22;33721;48.852;9.936;2023-07-28T07:36:40;17.20;99.90
47961;DHT22;33721;48.852;9.936;2023-07-28T07:39:05;17.30;99.90
47961;DHT22;33721;48.852;9.936;2023-07-28T07:41:31;17.30;99.90
47961;DHT22;33721;48.852;9.936;2023-07-28T07:43:57;17.20;99.90
47961;DHT22;33721;48.852;9.936;2023-07-28T07:46:23;17.20;99.90
47961;DHT22;33721;48.852;9.936;2023-07-28T07:48:49;17.30;99.90
47961;DHT22;33721;48.852;9.936;2023-07-28T07:51:15;17.30;99.90
47961;DHT22;33721;48.852;9.936;2023-07-28T07:53:41;17.40;99.90
47961;DHT22;33721;48.852;9.936;2023-07-28T07:56:07;17.40;99.90
47961;DHT22;33721;48.852;9.936;2023-07-28T07:58:33;17.50;99.90
47961;DHT22;33721;48.852;9.936;2023-07-28T08:00:59;17.70;99.90
47961;DHT22;33721;48.852;9.936;2023-07-28T08:03:25;17.80;99.90
47961;DHT22;33721;48.852;9.936;2023-07-28T08:05:52;18.00;99.90
47961;DHT22;33721;48.852;9.936;2023-07-28T08:08:18;18.00;99.90
47961;DHT22;33721;48.852;9.936;2023-07-28T08:10:45;18.10;99.90
47961;DHT22;33721;48.852;9.936;2023-07-28T08:13:12;18.10;99.90
47961;DHT22;33721;48.852;9.936;2023-07-28T08:15:38;18.20;99.90
47961;DHT22;33721;48.852;9.936;2023-07-28T08:18:03;18.20;99.90
47961;DHT22;33721;48.852;9.936;2023-07-28T08:20:29;18.40;99.90
47961;DHT22;33721;48.852;9.936;2023-07-28T08:22:55;18.50;99.90
47961;DHT22;33721;48.852;9.936;2023-07-28T08:25:21;18.70;99.90
47961;DHT22;33721;48.852;9.936;2023-07-28T08:27:49;18.70;99.90
47961;DHT22;33721;48.852;9.936;2023-07-28T08:30:15;18.70;99.90
47961;DHT22;33721;48.852;9.936;2023-07-28T08:32:42;18.90;99.90
47961;DHT22;33721;48.852;9.936;2023-07-28T08:35:08;18.90;99.90
47961;DHT22;33721;48.852;9.936;2023-07-28T08:37:34;18.90;99.90
47961;DHT22;33721;48.852;9.936;2023-07-28T08:40:00;18.80;99.90
47961;DHT22;33721;48.852;9.936;2023-07-28T08:42:28;18.80;99.90
47961;DHT22;33721;48.852;9.936;2023-07-28T08:44:54;18.70;99.90
47961;DHT22;33721;48.852;9.936;2023-07-28T08:47:20;18.60;99.90
47961;DHT22;33721;48.852;9.936;2023-07-28T08:49:48;18.50;99.90
47961;DHT22;33721;48.852;9.936;2023-07-28T08:52:17;18.40;99.90
47961;DHT22;33721;48.852;9.936;2023-07-28T08:54:43;18.30;99.90
47961;DHT22;33721;48.852;9.936;2023-07-28T08:57:09;18.30;99.90
47961;DHT22;33721;48.852;9.936;2023-07-28T08:59:35;18.30;99.90
47961;DHT22;33721;48.852;9.936;2023-07-28T09:02:02;18.30;99.90
47961;DHT22;33721;48.852;9.936;2023-07-28T09:04:30;18.20;99.90
47961;DHT22;33721;48.852;9.936;2023-07-28T09:06:58;18.20;99.90
47961;DHT22;33721;48.852;9.936;2023-07-28T09:09:24;18.20;99.90
47961;DHT22;33721;48.852;9.936;2023-07-28T09:11:54;18.20;99.90
47961;DHT22;33721;48.852;9.936;2023-07-28T09:14:21;18.20;99.90
47961;DHT22;33721;48.852;9.936;2023-07-28T09:16:49;18.30;99.90
47961;DHT22;33721;48.852;9.936;2023-07-28T09:19:15;18.30;99.90
47961;DHT22;33721;48.852;9.936;2023-07-28T09:21:44;18.30;99.90
47961;DHT22;33721;48.852;9.936;2023-07-28T09:24:13;18.30;99.90
47961;DHT22;33721;48.852;9.936;2023-07-28T09:26:48;18.20;99.90
47961;DHT22;33721;48.852;9.936;2023-07-28T09:29:18;18.20;99.90
47961;DHT22;33721;48.852;9.936;2023-07-28T09:31:48;18.40;99.90
47961;DHT22;33721;48.852;9.936;2023-07-28T09:34:28;18.30;99.90
47961;DHT22;33721;48.852;9.936;2023-07-28T09:36:55;18.40;99.90
47961;DHT22;33721;48.852;9.936;2023-07-28T09:39:23;18.40;99.90
47961;DHT22;33721;48.852;9.936;2023-07-28T09:41:50;18.40;99.90
47961;DHT22;33721;48.852;9.936;2023-07-28T09:44:16;18.40;99.90
47961;DHT22;33721;48.852;9.936;2023-07-28T09:46:56;18.40;99.90
47961;DHT22;33721;48.852;9.936;2023-07-28T09:49:44;18.40;99.90
47961;DHT22;33721;48.852;9.936;2023-07-28T09:52:14;18.50;99.90
47961;DHT22;33721;48.852;9.936;2023-07-28T09:54:46;18.60;99.90
47961;DHT22;33721;48.852;9.936;2023-07-28T09:57:16;18.80;99.90
47961;DHT22;33721;48.852;9.936;2023-07-28T09:59:46;18.90;99.90
47961;DHT22;33721;48.852;9.936;2023-07-28T10:02:13;19.10;99.90
47961;DHT22;33721;48.852;9.936;2023-07-28T10:04:39;19.20;99.90
47961;DHT22;33721;48.852;9.936;2023-07-28T10:07:07;19.40;99.90
47961;DHT22;33721;48.852;9.936;2023-07-28T10:09:37;19.50;99.90
47961;DHT22;33721;48.852;9.936;2023-07-28T10:12:03;19.60;99.90
47961;DHT22;33721;48.852;9.936;2023-07-28T10:14:32;19.80;99.90
47961;DHT22;33721;48.852;9.936;2023-07-28T10:17:00;20.20;99.90
47961;DHT22;33721;48.852;9.936;2023-07-28T10:19:36;20.10;99.90
47961;DHT22;33721;48.852;9.936;2023-07-28T10:22:12;20.20;99.90
47961;DHT22;33721;48.852;9.936;2023-07-28T10:24:51;20.40;99.90
47961;DHT22;33721;48.852;9.936;2023-07-28T10:27:36;20.60;99.90
47961;DHT22;33721;48.852;9.936;2023-07-28T10:30:04;20.60;99.90
47961;DHT22;33721;48.852;9.936;2023-07-28T10:32:44;20.40;99.90
47961;DHT22;33721;48.852;9.936;2023-07-28T10:37:39;20.50;99.90
47961;DHT22;33721;48.852;9.936;2023-07-28T10:40:23;20.50;99.90
47961;DHT22;33721;48.852;9.936;2023-07-28T10:42:53;20.40;99.90
47961;DHT22;33721;48.852;9.936;2023-07-28T10:45:19;20.40;99.90
47961;DHT22;33721;48.852;9.936;2023-07-28T10:47:45;20.50;99.90
47961;DHT22;33721;48.852;9.936;2023-07-28T10:50:11;20.60;99.90
47961;DHT22;33721;48.852;9.936;2023-07-28T10:52:41;20.60;99.90
47961;DHT22;33721;48.852;9.936;2023-07-28T10:55:18;20.80;99.90
47961;DHT22;33721;48.852;9.936;2023-07-28T10:57:44;21.00;99.90
47961;DHT22;33721;48.852;9.936;2023-07-28T11:00:12;21.20;99.90
47961;DHT22;33721;48.852;9.936;2023-07-28T11:02:44;21.50;99.90
47961;DHT22;33721;48.852;9.936;2023-07-28T11:05:12;21.60;99.90
47961;DHT22;33721;48.852;9.936;2023-07-28T11:07:42;21.80;99.90
47961;DHT22;33721;48.852;9.936;2023-07-28T11:10:13;21.60;99.90
47961;DHT22;33721;48.852;9.936;2023-07-28T11:12:46;21.40;99.90
47961;DHT22;33721;48.852;9.936;2023-07-28T11:15:14;21.20;99.90
47961;DHT22;33721;48.852;9.936;2023-07-28T11:17:42;21.10;99.90
47961;DHT22;33721;48.852;9.936;2023-07-28T11:20:25;21.10;99.90
47961;DHT22;33721;48.852;9.936;2023-07-28T11:22:56;21.10;99.90
47961;DHT22;33721;48.852;9.936;2023-07-28T11:25:24;21.10;99.90
47961;DHT22;33721;48.852;9.936;2023-07-28T11:27:50;21.10;99.90
47961;DHT22;33721;48.852;9.936;2023-07-28T11:30:17;21.00;99.90
47961;DHT22;33721;48.852;9.936;2023-07-28T11:32:45;21.00;99.90
47961;DHT22;33721;48.852;9.936;2023-07-28T11:35:13;21.20;99.90
47961;DHT22;33721;48.852;9.936;2023-07-28T11:37:39;21.20;99.90
47961;DHT22;33721;48.852;9.936;2023-07-28T11:40:07;21.10;99.90
47961;DHT22;33721;48.852;9.936;2023-07-28T11:42:34;21.10;99.90
47961;DHT22;33721;48.852;9.936;2023-07-28T11:45:02;21.10;99.90
47961;DHT22;33721;48.852;9.936;2023-07-28T11:47:28;21.20;99.90
47961;DHT22;33721;48.852;9.936;2023-07-28T11:49:54;21.10;99.90
47961;DHT22;33721;48.852;9.936;2023-07-28T11:52:20;21.10;99.90
47961;DHT22;33721;48.852;9.936;2023-07-28T11:54:46;21.20;99.90
47961;DHT22;33721;48.852;9.936;2023-07-28T11:57:12;21.30;99.90
47961;DHT22;33721;48.852;9.936;2023-07-28T11:59:38;21.30;99.90
47961;DHT22;33721;48.852;9.936;2023-07-28T12:02:05;21.50;99.90
47961;DHT22;33721;48.852;9.936;2023-07-28T12:04:38;21.70;99.90
47961;DHT22;33721;48.852;9.936;2023-07-28T12:07:13;22.10;99.90
47961;DHT22;33721;48.852;9.936;2023-07-28T12:09:49;22.40;99.90
47961;DHT22;33721;48.852;9.936;2023-07-28T12:12:17;22.60;99.90
47961;DHT22;33721;48.852;9.936;2023-07-28T12:14:43;22.50;99.90
47961;DHT22;33721;48.852;9.936;2023-07-28T12:17:16;22.20;99.90
47961;DHT22;33721;48.852;9.936;2023-07-28T12:20:03;21.90;99.90
47961;DHT22;33721;48.852;9.936;2023-07-28T12:22:39;21.70;99.90
47961;DHT22;33721;48.852;9.936;2023-07-28T12:25:05;21.80;99.90
47961;DHT22;33721;48.852;9.936;2023-07-28T12:27:31;21.80;99.90
47961;DHT22;33721;48.852;9.936;2023-07-28T12:29:57;21.90;99.90
47961;DHT22;33721;48.852;9.936;2023-07-28T12:32:23;21.80;99.90
47961;DHT22;33721;48.852;9.936;2023-07-28T12:34:50;21.70;99.90
47961;DHT22;33721;48.852;9.936;2023-07-28T12:37:19;21.70;99.90
47961;DHT22;33721;48.852;9.936;2023-07-28T12:39:45;21.60;99.90
47961;DHT22;33721;48.852;9.936;2023-07-28T12:42:12;21.50;99.90
47961;DHT22;33721;48.852;9.936;2023-07-28T12:44:38;21.50;99.90
47961;DHT22;33721;48.852;9.936;2023-07-28T12:47:04;21.40;99.90
47961;DHT22;33721;48.852;9.936;2023-07-28T12:49:31;21.50;99.90
47961;DHT22;33721;48.852;9.936;2023-07-28T12:52:01;21.40;99.90
47961;DHT22;33721;48.852;9.936;2023-07-28T12:54:27;21.40;99.90
47961;DHT22;33721;48.852;9.936;2023-07-28T12:56:54;21.40;99.90
47961;DHT22;33721;48.852;9.936;2023-07-28T12:59:20;21.30;99.90
47961;DHT22;33721;48.852;9.936;2023-07-28T13:01:46;21.40;99.90
47961;DHT22;33721;48.852;9.936;2023-07-28T13:04:12;21.40;99.90
47961;DHT22;33721;48.852;9.936;2023-07-28T13:06:40;21.30;99.90
47961;DHT22;33721;48.852;9.936;2023-07-28T13:09:07;21.40;99.90
47961;DHT22;33721;48.852;9.936;2023-07-28T13:11:35;21.30;99.90
47961;DHT22;33721;48.852;9.936;2023-07-28T13:14:01;21.10;99.90
47961;DHT22;33721;48.852;9.936;2023-07-28T13:16:27;21.10;99.90
47961;DHT22;33721;48.852;9.936;2023-07-28T13:18:53;21.00;99.90
47961;DHT22;33721;48.852;9.936;2023-07-28T13:21:18;21.00;99.90
47961;DHT22;33721;48.852;9.936;2023-07-28T13:23:44;21.00;99.90
47961;DHT22;33721;48.852;9.936;2023-07-28T13:26:10;21.10;99.90
47961;DHT22;33721;48.852;9.936;2023-07-28T13:28:36;21.10;99.90
47961;DHT22;33721;48.852;9.936;2023-07-28T13:31:02;21.20;99.90
47961;DHT22;33721;48.852;9.936;2023-07-28T13:33:28;21.30;99.90
47961;DHT22;33721;48.852;9.936;2023-07-28T13:35:54;21.40;99.90
47961;DHT22;33721;48.852;9.936;2023-07-28T13:38:19;21.40;99.90
47961;DHT22;33721;48.852;9.936;2023-07-28T13:40:45;21.30;99.90
47961;DHT22;33721;48.852;9.936;2023-07-28T13:43:10;21.20;99.90
47961;DHT22;33721;48.852;9.936;2023-07-28T13:45:36;21.10;99.90
47961;DHT22;33721;48.852;9.936;2023-07-28T13:48:03;20.90;99.90
47961;DHT22;33721;48.852;9.936;2023-07-28T13:50:28;20.80;99.90
47961;DHT22;33721;48.852;9.936;2023-07-28T13:52:54;20.80;99.90
47961;DHT22;33721;48.852;9.936;2023-07-28T13:55:20;20.80;99.90
47961;DHT22;33721;48.852;9.936;2023-07-28T13:57:46;20.80;99.90
47961;DHT22;33721;48.852;9.936;2023-07-28T14:00:12;20.70;99.90
47961;DHT22;33721;48.852;9.936;2023-07-28T14:02:39;20.70;99.90
47961;DHT22;33721;48.852;9.936;2023-07-28T14:05:05;20.70;99.90
47961;DHT22;33721;48.852;9.936;2023-07-28T14:07:31;20.70;99.90
47961;DHT22;33721;48.852;9.936;2023-07-28T14:09:57;20.60;99.90
47961;DHT22;33721;48.852;9.936;2023-07-28T14:12:23;20.50;99.90
47961;DHT22;33721;48.852;9.936;2023-07-28T14:14:48;20.50;99.90
47961;DHT22;33721;48.852;9.936;2023-07-28T14:17:17;20.50;99.90
47961;DHT22;33721;48.852;9.936;2023-07-28T14:19:42;20.40;99.90
47961;DHT22;33721;48.852;9.936;2023-07-28T14:22:08;20.40;99.90
47961;DHT22;33721;48.852;9.936;2023-07-28T14:24:34;20.30;99.90
47961;DHT22;33721;48.852;9.936;2023-07-28T14:27:00;20.20;99.90
47961;DHT22;33721;48.852;9.936;2023-07-28T14:29:26;20.10;99.90
47961;DHT22;33721;48.852;9.936;2023-07-28T14:31:52;20.10;99.90
47961;DHT22;33721;48.852;9.936;2023-07-28T14:34:17;20.00;99.90
47961;DHT22;33721;48.852;9.936;2023-07-28T14:36:43;19.90;99.90
47961;DHT22;33721;48.852;9.936;2023-07-28T14:39:09;19.90;99.90
47961;DHT22;33721;48.852;9.936;2023-07-28T14:41:35;19.80;99.90
47961;DHT22;33721;48.852;9.936;2023-07-28T14:44:00;19.70;99.90
47961;DHT22;33721;48.852;9.936;2023-07-28T14:46:26;19.70;99.90
47961;DHT22;33721;48.852;9.936;2023-07-28T14:48:52;19.70;99.90
47961;DHT22;33721;48.852;9.936;2023-07-28T14:51:18;19.70;99.90
47961;DHT22;33721;48.852;9.936;2023-07-28T14:53:44;19.60;99.90
47961;DHT22;33721;48.852;9.936;2023-07-28T14:56:12;19.60;99.90
47961;DHT22;33721;48.852;9.936;2023-07-28T14:58:38;19.60;99.90
47961;DHT22;33721;48.852;9.936;2023-07-28T15:01:07;19.70;99.90
47961;DHT22;33721;48.852;9.936;2023-07-28T15:03:33;19.70;99.90
47961;DHT22;33721;48.852;9.936;2023-07-28T15:06:00;19.80;99.90
47961;DHT22;33721;48.852;9.936;2023-07-28T15:08:26;19.90;99.90
47961;DHT22;33721;48.852;9.936;2023-07-28T15:10:52;19.90;99.90
47961;DHT22;33721;48.852;9.936;2023-07-28T15:13:18;19.90;99.90
47961;DHT22;33721;48.852;9.936;2023-07-28T15:15:44;19.90;99.90
47961;DHT22;33721;48.852;9.936;2023-07-28T15:18:10;19.90;99.90
47961;DHT22;33721;48.852;9.936;2023-07-28T15:20:37;19.90;99.90
47961;DHT22;33721;48.852;9.936;2023-07-28T15:23:02;19.90;99.90
47961;DHT22;33721;48.852;9.936;2023-07-28T15:25:28;20.00;99.90
47961;DHT22;33721;48.852;9.936;2023-07-28T15:27:56;20.00;99.90
47961;DHT22;33721;48.852;9.936;2023-07-28T15:30:22;19.90;99.90
47961;DHT22;33721;48.852;9.936;2023-07-28T15:32:48;19.80;99.90